createdAt,value
2023-01-09T00:00:35.988Z,3.00
2023-01-09T00:03:02.645Z,4.32
2023-01-09T00:05:29.256Z,4.33
2023-01-09T00:07:55.874Z,2.92
2023-01-09T00:10:22.541Z,5.50
2023-01-09T00:12:49.556Z,4.00
2023-01-09T00:15:16.560Z,4.03
2023-01-09T00:17:43.239Z,2.83
2023-01-09T00:20:11.273Z,5.55
2023-01-09T00:22:38.231Z,8.40
2023-01-09T00:25:05.615Z,4.18
2023-01-09T00:27:34.126Z,4.55
2023-01-09T00:30:01.080Z,4.00
2023-01-09T00:32:28.691Z,4.28
2023-01-09T00:34:56.389Z,3.83
2023-01-09T00:37:23.448Z,4.70
2023-01-09T00:39:50.276Z,3.53
2023-01-09T00:42:22.369Z,7.53
2023-01-09T00:44:56.865Z,3.92
2023-01-09T00:47:28.256Z,4.20
2023-01-09T00:49:57.653Z,3.50
2023-01-09T00:52:24.308Z,5.03
2023-01-09T00:54:51.015Z,5.00
2023-01-09T00:57:17.714Z,3.13
2023-01-09T00:59:44.591Z,4.18
2023-01-09T01:02:11.411Z,6.30
2023-01-09T01:04:56.817Z,3.95
2023-01-09T01:07:38.603Z,5.10
2023-01-09T01:10:25.577Z,4.22
2023-01-09T01:12:52.758Z,6.82
2023-01-09T01:15:20.375Z,2.55
2023-01-09T01:17:47.247Z,4.35
2023-01-09T01:20:16.847Z,4.53
2023-01-09T01:22:43.579Z,6.53
2023-01-09T01:25:12.522Z,4.35
2023-01-09T01:27:39.585Z,6.97
2023-01-09T01:30:09.526Z,3.13
2023-01-09T01:32:37.148Z,7.47
2023-01-09T01:35:04.157Z,8.48
2023-01-09T01:37:30.927Z,4.97
2023-01-09T01:39:57.628Z,8.35
2023-01-09T01:42:24.733Z,7.78
2023-01-09T01:45:05.885Z,4.23
2023-01-09T01:47:55.580Z,8.15
2023-01-09T01:50:51.578Z,4.95
2023-01-09T01:53:33.396Z,11.27
2023-01-09T01:56:09.644Z,4.88
2023-01-09T01:58:41.368Z,4.80
2023-01-09T02:01:08.599Z,7.30
2023-01-09T02:03:36.721Z,8.05
2023-01-09T02:06:04.884Z,6.70
2023-01-09T02:08:31.844Z,9.35
2023-01-09T02:10:58.833Z,9.37
2023-01-09T02:13:26.700Z,6.30
2023-01-09T02:16:11.919Z,8.30
2023-01-09T02:19:06.329Z,9.27
2023-01-09T02:21:51.736Z,6.47
2023-01-09T02:24:35.559Z,7.33
2023-01-09T02:27:11.147Z,9.75
2023-01-09T02:30:04.100Z,6.72
2023-01-09T02:32:42.088Z,6.40
2023-01-09T02:35:19.691Z,6.85
2023-01-09T02:38:02.978Z,7.20
2023-01-09T02:40:37.637Z,8.02
2023-01-09T02:43:06.112Z,7.75
2023-01-09T02:45:32.793Z,6.72
2023-01-09T02:47:59.512Z,8.27
2023-01-09T02:50:39.513Z,6.87
2023-01-09T02:53:27.771Z,8.70
2023-01-09T02:56:33.382Z,6.93
2023-01-09T02:59:21.525Z,6.60
2023-01-09T03:01:59.890Z,8.40
2023-01-09T03:04:45.253Z,13.87
2023-01-09T03:07:25.226Z,11.82
2023-01-09T03:09:59.944Z,6.35
2023-01-09T03:12:31.509Z,10.48
2023-01-09T03:15:01.265Z,10.80
2023-01-09T03:17:49.224Z,8.57
2023-01-09T03:20:21.555Z,7.22
2023-01-09T03:23:03.630Z,6.82
2023-01-09T03:25:31.320Z,7.18
2023-01-09T03:28:10.617Z,9.95
2023-01-09T03:30:37.596Z,7.17
2023-01-09T03:33:04.480Z,8.75
2023-01-09T03:35:31.156Z,9.60
2023-01-09T03:37:58.939Z,5.88
2023-01-09T03:40:25.675Z,7.53
2023-01-09T03:42:52.312Z,6.90
2023-01-09T03:45:18.894Z,9.55
2023-01-09T03:47:45.532Z,7.93
2023-01-09T03:50:12.193Z,10.38
2023-01-09T03:52:38.920Z,7.88
2023-01-09T03:55:05.843Z,9.77
2023-01-09T03:57:32.432Z,6.88
2023-01-09T03:59:59.042Z,10.07
2023-01-09T04:02:25.658Z,10.52
2023-01-09T04:04:52.363Z,8.00
2023-01-09T04:07:18.964Z,8.17
2023-01-09T04:09:45.637Z,8.82
2023-01-09T04:12:12.312Z,6.40
2023-01-09T04:14:38.924Z,10.15
2023-01-09T04:17:05.587Z,8.65
2023-01-09T04:19:32.159Z,6.77
2023-01-09T04:21:58.711Z,11.82
2023-01-09T04:24:25.334Z,5.70
2023-01-09T04:26:51.971Z,7.78
2023-01-09T04:29:18.686Z,7.18
2023-01-09T04:31:45.367Z,11.17
2023-01-09T04:34:12.070Z,5.47
2023-01-09T04:36:39.530Z,11.93
2023-01-09T04:39:06.153Z,7.32
2023-01-09T04:41:50.642Z,8.85
2023-01-09T04:44:18.159Z,6.60
2023-01-09T04:46:45.141Z,5.20
2023-01-09T04:49:11.871Z,11.25
2023-01-09T04:51:38.944Z,6.82
2023-01-09T04:54:05.740Z,9.65
2023-01-09T04:56:32.358Z,7.00
2023-01-09T04:58:59.005Z,8.27
2023-01-09T05:01:25.788Z,5.45
2023-01-09T05:03:52.509Z,6.82
2023-01-09T05:06:19.241Z,7.28
2023-01-09T05:08:45.964Z,4.57
2023-01-09T05:11:12.698Z,10.05
2023-01-09T05:13:39.315Z,7.68
2023-01-09T05:16:06.258Z,5.22
2023-01-09T05:18:33.143Z,10.57
2023-01-09T05:20:59.936Z,7.73
2023-01-09T05:23:26.537Z,4.63
2023-01-09T05:25:53.203Z,8.43
2023-01-09T05:28:19.907Z,7.47
2023-01-09T05:30:47.416Z,8.80
2023-01-09T05:33:14.068Z,4.83
2023-01-09T05:35:40.627Z,7.32
2023-01-09T05:38:07.313Z,6.38
2023-01-09T05:40:40.030Z,8.15
2023-01-09T05:43:07.398Z,5.88
2023-01-09T05:45:34.584Z,4.47
2023-01-09T05:48:01.299Z,6.53
2023-01-09T05:50:28.256Z,5.97
2023-01-09T05:52:54.917Z,10.30
2023-01-09T05:55:21.534Z,9.50
2023-01-09T05:57:48.165Z,5.60
2023-01-09T06:00:15.437Z,6.90
2023-01-09T06:02:42.378Z,7.00
2023-01-09T06:05:09.610Z,10.73
2023-01-09T06:07:39.201Z,7.32
2023-01-09T06:10:07.856Z,8.27
2023-01-09T06:12:34.464Z,8.63
2023-01-09T06:15:01.066Z,8.85
2023-01-09T06:17:27.778Z,5.68
2023-01-09T06:19:54.444Z,15.80
2023-01-09T06:22:21.124Z,5.40
2023-01-09T06:24:47.680Z,6.72
2023-01-09T06:27:14.319Z,9.15
2023-01-09T06:29:40.992Z,10.68
2023-01-09T06:32:07.612Z,11.18
2023-01-09T06:34:34.282Z,8.83
2023-01-09T06:37:00.886Z,5.05
2023-01-09T06:39:27.536Z,5.78
2023-01-09T06:41:54.131Z,6.50
2023-01-09T06:44:20.751Z,6.95
2023-01-09T06:46:47.327Z,7.13
2023-01-09T06:49:13.978Z,7.30
2023-01-09T06:51:40.528Z,10.75
2023-01-09T06:54:07.151Z,6.50
2023-01-09T06:56:33.756Z,9.82
2023-01-09T06:59:01.165Z,8.30
2023-01-09T07:01:28.723Z,14.07
2023-01-09T07:03:55.485Z,17.48
2023-01-09T07:06:22.252Z,9.25
2023-01-09T07:08:48.819Z,10.45
2023-01-09T07:11:15.398Z,8.83
2023-01-09T07:13:42.538Z,7.65
2023-01-09T07:16:09.356Z,16.42
2023-01-09T07:18:37.033Z,10.88
2023-01-09T07:21:06.720Z,13.85
2023-01-09T07:23:33.928Z,11.17
2023-01-09T07:26:01.037Z,12.98
2023-01-09T07:28:27.796Z,13.77
2023-01-09T07:30:55.035Z,7.18
2023-01-09T07:33:21.714Z,7.28
2023-01-09T07:35:48.367Z,13.33
2023-01-09T07:38:14.936Z,11.52
2023-01-09T07:40:41.556Z,11.23
2023-01-09T07:43:08.128Z,11.27
2023-01-09T07:45:34.747Z,11.65
2023-01-09T07:48:01.331Z,11.53
2023-01-09T07:50:27.951Z,12.45
2023-01-09T07:52:54.715Z,8.80
2023-01-09T07:55:21.330Z,8.50
2023-01-09T07:57:50.050Z,12.23
2023-01-09T08:00:17.649Z,8.93
2023-01-09T08:02:44.435Z,9.70
2023-01-09T08:05:14.803Z,6.82
2023-01-09T08:07:41.807Z,10.35
2023-01-09T08:10:10.434Z,9.10
2023-01-09T08:12:37.013Z,6.23
2023-01-09T08:15:03.905Z,7.65
2023-01-09T08:17:30.567Z,6.95
2023-01-09T08:19:57.179Z,6.72
2023-01-09T08:22:23.827Z,7.03
2023-01-09T08:24:50.484Z,4.93
2023-01-09T08:27:17.171Z,4.15
2023-01-09T08:29:43.846Z,5.07
2023-01-09T08:32:10.479Z,13.02
2023-01-09T08:34:38.312Z,7.18
2023-01-09T08:37:04.992Z,5.57
2023-01-09T08:39:56.075Z,3.55
2023-01-09T08:42:41.517Z,3.83
2023-01-09T08:45:35.800Z,4.35
2023-01-09T08:48:02.499Z,5.32
2023-01-09T08:50:29.211Z,6.63
2023-01-09T08:52:55.774Z,5.72
2023-01-09T08:55:22.400Z,6.75
2023-01-09T08:57:53.456Z,5.82
2023-01-09T09:00:22.791Z,3.70
2023-01-09T09:03:00.780Z,5.13
2023-01-09T09:05:29.468Z,6.65
2023-01-09T09:07:56.319Z,5.72
2023-01-09T09:10:24.501Z,8.50
2023-01-09T09:12:53.668Z,5.72
2023-01-09T09:15:24.076Z,5.27
2023-01-09T09:17:58.810Z,7.15
2023-01-09T09:20:28.639Z,8.32
2023-01-09T09:22:55.516Z,7.82
2023-01-09T09:25:22.168Z,7.72
2023-01-09T09:27:49.217Z,11.93
2023-01-09T09:30:18.084Z,8.38
2023-01-09T09:32:45.649Z,5.65
2023-01-09T09:35:12.651Z,4.95
2023-01-09T09:37:39.707Z,8.38
2023-01-09T09:40:18.034Z,8.77
2023-01-09T09:43:26.413Z,8.32
2023-01-09T09:46:01.061Z,7.47
2023-01-09T09:48:37.868Z,11.27
2023-01-09T09:51:16.368Z,10.32
2023-01-09T09:53:59.953Z,11.20
2023-01-09T09:56:29.761Z,9.45
2023-01-09T09:59:17.360Z,5.82
2023-01-09T10:01:48.916Z,8.57
2023-01-09T10:04:18.484Z,4.43
2023-01-09T10:06:48.475Z,9.60
2023-01-09T10:09:42.987Z,8.73
2023-01-09T10:12:29.402Z,5.68
2023-01-09T10:15:17.753Z,11.52
2023-01-09T10:18:02.308Z,16.33
2023-01-09T10:20:56.646Z,11.83
2023-01-09T10:23:44.306Z,12.10
2023-01-09T10:26:21.842Z,15.02
2023-01-09T10:29:19.868Z,13.10
2023-01-09T10:31:46.464Z,13.85
2023-01-09T10:35:01.499Z,17.43
2023-01-09T10:37:45.156Z,13.68
2023-01-09T10:40:20.034Z,12.52
2023-01-09T10:43:18.982Z,10.30
2023-01-09T10:45:54.010Z,12.75
2023-01-09T10:48:29.190Z,8.97
2023-01-09T10:50:57.026Z,10.38
2023-01-09T10:53:32.617Z,10.70
2023-01-09T10:56:06.426Z,11.65
2023-01-09T10:58:33.111Z,6.50
2023-01-09T11:01:01.361Z,10.27
2023-01-09T11:03:28.941Z,7.47
2023-01-09T11:06:00.797Z,11.45
2023-01-09T11:08:41.870Z,8.63
2023-01-09T11:11:09.745Z,7.35
2023-01-09T11:13:38.414Z,8.67
2023-01-09T11:16:23.956Z,9.73
2023-01-09T11:19:00.281Z,7.35
2023-01-09T11:21:39.417Z,5.43
2023-01-09T11:24:21.481Z,9.10
2023-01-09T11:26:50.758Z,8.20
2023-01-09T11:29:20.117Z,8.93
2023-01-09T11:31:53.123Z,9.52
2023-01-09T11:34:23.172Z,11.00
2023-01-09T11:36:52.773Z,11.15
2023-01-09T11:39:26.334Z,17.30
2023-01-09T11:41:55.823Z,12.23
2023-01-09T11:44:22.962Z,19.98
2023-01-09T11:46:50.083Z,11.00
2023-01-09T11:49:28.154Z,9.27
2023-01-09T11:52:19.396Z,13.63
2023-01-09T11:54:59.020Z,11.25
2023-01-09T11:57:27.078Z,15.82
2023-01-09T11:59:57.725Z,15.80
2023-01-09T12:02:53.314Z,8.90
2023-01-09T12:05:57.769Z,16.50
2023-01-09T12:08:44.040Z,10.02
2023-01-09T12:11:17.560Z,15.18
2023-01-09T12:14:16.421Z,14.15
2023-01-09T12:16:55.674Z,9.63
2023-01-09T12:19:53.705Z,13.60
2023-01-09T12:22:43.167Z,12.35
2023-01-09T12:25:26.288Z,17.25
2023-01-09T12:28:10.089Z,15.98
2023-01-09T12:31:07.617Z,9.10
2023-01-09T12:33:53.244Z,5.17
2023-01-09T12:36:32.191Z,10.48
2023-01-09T12:39:20.623Z,8.75
2023-01-09T12:41:58.159Z,9.43
2023-01-09T12:44:51.209Z,11.38
2023-01-09T12:47:45.730Z,5.60
2023-01-09T12:50:30.491Z,8.68
2023-01-09T12:53:03.103Z,13.18
2023-01-09T12:55:35.826Z,17.67
2023-01-09T12:58:12.176Z,9.80
2023-01-09T13:00:43.041Z,16.10
2023-01-09T13:03:23.785Z,12.20
2023-01-09T13:05:53.414Z,21.10
2023-01-09T13:08:40.246Z,8.68
2023-01-09T13:11:24.346Z,11.25
2023-01-09T13:14:10.734Z,17.97
2023-01-09T13:16:43.421Z,12.52
2023-01-09T13:19:31.499Z,16.63
2023-01-09T13:21:59.122Z,8.15
2023-01-09T13:24:37.020Z,14.30
2023-01-09T13:27:09.413Z,12.57
2023-01-09T13:29:40.808Z,12.02
2023-01-09T13:32:25.579Z,15.18
2023-01-09T13:34:54.727Z,16.77
2023-01-09T13:37:28.523Z,13.32
2023-01-09T13:39:57.956Z,12.93
2023-01-09T13:42:46.054Z,12.45
2023-01-09T13:45:18.695Z,12.52
2023-01-09T13:47:45.460Z,20.75
2023-01-09T13:50:22.198Z,16.38
2023-01-09T13:52:49.200Z,18.27
2023-01-09T13:55:16.807Z,18.50
2023-01-09T13:58:16.380Z,17.08
2023-01-09T14:00:43.036Z,12.50
2023-01-09T14:03:18.603Z,18.60
2023-01-09T14:05:45.320Z,13.90
2023-01-09T14:08:17.944Z,20.17
2023-01-09T14:10:44.536Z,16.85
2023-01-09T14:13:38.827Z,14.68
2023-01-09T14:16:11.624Z,10.88
2023-01-09T14:18:46.136Z,14.63
2023-01-09T14:21:13.550Z,10.75
2023-01-09T14:23:52.450Z,21.85
2023-01-09T14:26:25.913Z,12.20
2023-01-09T14:29:12.472Z,16.90
2023-01-09T14:31:39.147Z,19.83
2023-01-09T14:34:31.687Z,16.88
2023-01-09T14:37:02.329Z,17.92
2023-01-09T14:39:33.245Z,15.07
2023-01-09T14:42:09.025Z,17.80
2023-01-09T14:44:41.568Z,19.87
2023-01-09T14:47:17.971Z,11.45
2023-01-09T14:49:51.596Z,14.25
2023-01-09T14:52:29.998Z,12.52
2023-01-09T14:55:02.370Z,21.42
2023-01-09T14:57:30.206Z,10.97
2023-01-09T15:00:02.757Z,9.68
2023-01-09T15:02:41.104Z,14.02
2023-01-09T15:05:11.292Z,13.27
2023-01-09T15:08:03.496Z,20.63
2023-01-09T15:10:32.792Z,13.40
2023-01-09T15:13:01.855Z,16.30
2023-01-09T15:15:31.667Z,15.00
2023-01-09T15:18:01.754Z,16.55
2023-01-09T15:20:30.957Z,16.98
2023-01-09T15:23:08.759Z,20.13
2023-01-09T15:25:40.392Z,14.65
2023-01-09T15:28:32.392Z,13.07
2023-01-09T15:31:07.027Z,13.88
2023-01-09T15:33:34.483Z,15.23
2023-01-09T15:36:05.060Z,14.77
2023-01-09T15:38:33.059Z,17.48
2023-01-09T15:41:02.165Z,15.70
2023-01-09T15:43:31.315Z,14.13
2023-01-09T15:45:58.987Z,16.98
2023-01-09T15:48:34.126Z,12.13
2023-01-09T15:51:19.436Z,17.70
2023-01-09T15:53:50.135Z,20.52
2023-01-09T15:56:30.340Z,17.77
2023-01-09T15:58:58.383Z,21.65
2023-01-09T16:01:44.782Z,20.43
2023-01-09T16:04:16.834Z,20.35
2023-01-09T16:06:51.658Z,15.52
2023-01-09T16:09:23.704Z,11.95
2023-01-09T16:11:53.145Z,15.80
2023-01-09T16:14:34.524Z,13.87
2023-01-09T16:17:15.727Z,20.63
2023-01-09T16:19:51.376Z,11.32
2023-01-09T16:22:22.627Z,14.35
2023-01-09T16:24:53.606Z,15.10
2023-01-09T16:27:32.082Z,19.23
2023-01-09T16:30:06.701Z,12.80
2023-01-09T16:32:35.665Z,19.40
2023-01-09T16:35:06.116Z,13.93
2023-01-09T16:37:33.432Z,17.15
2023-01-09T16:40:08.815Z,14.50
2023-01-09T16:42:54.390Z,18.58
2023-01-09T16:45:21.311Z,12.90
2023-01-09T16:47:47.947Z,10.20
2023-01-09T16:50:14.551Z,14.88
2023-01-09T16:52:41.155Z,13.47
2023-01-09T16:55:09.478Z,14.07
2023-01-09T16:57:36.524Z,12.98
2023-01-09T17:00:05.102Z,11.52
2023-01-09T17:02:31.737Z,11.90
2023-01-09T17:04:59.379Z,15.80
2023-01-09T17:07:26.236Z,12.30
2023-01-09T17:09:53.397Z,12.88
2023-01-09T17:12:22.094Z,16.08
2023-01-09T17:14:49.454Z,14.23
2023-01-09T17:17:17.620Z,17.80
2023-01-09T17:19:46.595Z,12.73
2023-01-09T17:22:14.280Z,10.93
2023-01-09T17:24:59.807Z,8.50
2023-01-09T17:27:56.029Z,12.30
2023-01-09T17:30:22.730Z,13.33
2023-01-09T17:32:49.443Z,10.73
2023-01-09T17:35:16.180Z,12.10
2023-01-09T17:37:43.173Z,14.35
2023-01-09T17:40:19.250Z,14.20
2023-01-09T17:42:45.957Z,13.90
2023-01-09T17:45:12.954Z,18.80
2023-01-09T17:47:39.797Z,15.52
2023-01-09T17:50:07.204Z,15.55
2023-01-09T17:52:33.798Z,12.80
2023-01-09T17:55:05.212Z,10.07
2023-01-09T17:57:32.788Z,12.88
2023-01-09T17:59:59.510Z,9.52
2023-01-09T18:02:26.204Z,11.10
2023-01-09T18:04:52.922Z,10.60
2023-01-09T18:07:20.532Z,13.60
2023-01-09T18:09:47.300Z,7.80
2023-01-09T18:12:14.236Z,9.35
2023-01-09T18:14:42.098Z,11.05
2023-01-09T18:17:12.137Z,11.30
2023-01-09T18:19:38.819Z,21.83
2023-01-09T18:22:05.407Z,12.82
2023-01-09T18:24:32.047Z,7.70
2023-01-09T18:26:58.669Z,18.05
2023-01-09T18:29:25.454Z,13.73
2023-01-09T18:31:52.172Z,12.90
2023-01-09T18:34:18.884Z,10.75
2023-01-09T18:36:45.600Z,14.30
2023-01-09T18:39:12.192Z,14.43
2023-01-09T18:41:38.820Z,16.77
2023-01-09T18:44:05.584Z,17.03
2023-01-09T18:46:32.586Z,13.85
2023-01-09T18:49:01.644Z,10.52
2023-01-09T18:51:29.214Z,16.52
2023-01-09T18:53:56.507Z,11.38
2023-01-09T18:56:24.706Z,12.27
2023-01-09T18:58:56.024Z,15.60
2023-01-09T19:01:23.400Z,11.25
2023-01-09T19:03:50.165Z,13.52
2023-01-09T19:06:16.740Z,10.98
2023-01-09T19:08:43.843Z,14.80
2023-01-09T19:11:10.845Z,14.93
2023-01-09T19:13:37.985Z,11.30
2023-01-09T19:16:06.447Z,14.20
2023-01-09T19:18:35.541Z,10.35
2023-01-09T19:21:09.639Z,12.10
2023-01-09T19:23:36.254Z,13.45
2023-01-09T19:26:08.773Z,14.98
2023-01-09T19:28:36.184Z,11.48
2023-01-09T19:31:02.843Z,18.50
2023-01-09T19:33:29.448Z,13.90
2023-01-09T19:35:56.035Z,15.27
2023-01-09T19:38:23.059Z,14.32
2023-01-09T19:40:49.815Z,13.07
2023-01-09T19:43:25.755Z,16.67
2023-01-09T19:45:56.272Z,21.97
2023-01-09T19:48:24.219Z,18.50
2023-01-09T19:50:50.827Z,15.82
2023-01-09T19:53:17.468Z,15.73
2023-01-09T19:55:44.155Z,18.35
2023-01-09T19:58:11.200Z,23.50
2023-01-09T20:00:37.866Z,17.20
2023-01-09T20:03:04.566Z,20.17
2023-01-09T20:05:32.151Z,15.50
2023-01-09T20:07:58.721Z,22.88
2023-01-09T20:10:25.322Z,15.93
2023-01-09T20:12:51.997Z,21.95
2023-01-09T20:15:18.563Z,18.50
2023-01-09T20:17:45.134Z,17.42
2023-01-09T20:20:11.893Z,12.63
2023-01-09T20:22:38.474Z,15.27
2023-01-09T20:25:07.850Z,13.45
2023-01-09T20:27:34.509Z,20.83
2023-01-09T20:30:01.104Z,17.38
2023-01-09T20:32:29.842Z,15.80
2023-01-09T20:34:57.029Z,16.53
2023-01-09T20:37:23.675Z,20.65
2023-01-09T20:39:52.861Z,10.10
2023-01-09T20:42:19.461Z,17.88
2023-01-09T20:44:46.019Z,20.33
2023-01-09T20:47:12.691Z,16.80
2023-01-09T20:49:39.322Z,17.25
2023-01-09T20:52:05.904Z,16.38
2023-01-09T20:54:32.708Z,21.77
2023-01-09T20:56:59.306Z,16.13
2023-01-09T20:59:25.945Z,19.97
2023-01-09T21:01:52.875Z,16.63
2023-01-09T21:04:19.964Z,11.88
2023-01-09T21:06:49.769Z,15.02
2023-01-09T21:09:16.863Z,16.77
2023-01-09T21:11:44.401Z,22.60
2023-01-09T21:14:11.029Z,20.65
2023-01-09T21:16:37.783Z,17.10
2023-01-09T21:19:04.452Z,16.00
2023-01-09T21:21:31.157Z,18.83
2023-01-09T21:24:00.608Z,13.83
2023-01-09T21:26:30.240Z,14.75
2023-01-09T21:28:58.728Z,19.15
2023-01-09T21:31:34.191Z,14.38
2023-01-09T21:34:04.902Z,16.75
2023-01-09T21:36:31.968Z,21.53
2023-01-09T21:38:59.415Z,17.80
2023-01-09T21:41:44.975Z,16.05
2023-01-09T21:44:31.260Z,19.42
2023-01-09T21:47:00.824Z,22.17
2023-01-09T21:49:31.277Z,24.60
2023-01-09T21:51:58.368Z,15.02
2023-01-09T21:54:25.226Z,22.63
2023-01-09T21:56:52.741Z,17.77
2023-01-09T21:59:19.851Z,19.50
2023-01-09T22:01:48.522Z,18.83
2023-01-09T22:04:16.662Z,15.68
2023-01-09T22:06:43.561Z,15.20
2023-01-09T22:09:10.535Z,15.77
2023-01-09T22:11:43.168Z,14.30
2023-01-09T22:14:14.317Z,12.13
2023-01-09T22:16:42.024Z,18.75
2023-01-09T22:19:08.857Z,13.65
2023-01-09T22:21:35.685Z,17.48
2023-01-09T22:24:02.705Z,21.40
2023-01-09T22:26:30.176Z,17.03
2023-01-09T22:28:57.153Z,20.65
2023-01-09T22:31:32.715Z,12.68
2023-01-09T22:34:01.167Z,20.85
2023-01-09T22:36:29.269Z,18.05
2023-01-09T22:38:57.436Z,17.53
2023-01-09T22:41:25.559Z,18.13
2023-01-09T22:43:52.286Z,16.63
2023-01-09T22:46:19.005Z,15.98
2023-01-09T22:48:45.769Z,15.07
2023-01-09T22:51:18.704Z,19.60
2023-01-09T22:53:45.952Z,12.50
2023-01-09T22:56:15.250Z,15.25
2023-01-09T22:58:41.880Z,17.85
2023-01-09T23:01:11.319Z,21.52
2023-01-09T23:03:38.711Z,15.80
2023-01-09T23:06:14.029Z,13.40
2023-01-09T23:08:41.559Z,18.90
2023-01-09T23:11:11.688Z,24.25
2023-01-09T23:13:39.356Z,19.77
2023-01-09T23:16:07.039Z,13.67
2023-01-09T23:18:34.326Z,16.60
2023-01-09T23:21:04.208Z,15.65
2023-01-09T23:23:32.147Z,14.27
2023-01-09T23:26:02.666Z,11.65
2023-01-09T23:28:30.326Z,16.30
2023-01-09T23:30:57.098Z,16.65
2023-01-09T23:33:24.682Z,13.73
2023-01-09T23:35:51.308Z,15.48
2023-01-09T23:38:17.962Z,17.27
2023-01-09T23:40:44.713Z,18.57
2023-01-09T23:43:13.770Z,19.17
2023-01-09T23:45:46.208Z,18.27
2023-01-09T23:48:15.002Z,17.45
2023-01-09T23:50:51.774Z,13.00
2023-01-09T23:53:19.553Z,18.27
2023-01-09T23:55:46.324Z,11.98
2023-01-09T23:58:13.004Z,14.90
